Time,TemperatureF,DewpointF,PressureIn,WindDirection,WindDirectionDegrees,WindSpeedMPH,WindSpeedGustMPH,Humidity,HourlyPrecipIn,Conditions,Clouds,dailyrainin,SoftwareType,DateUTC
2013-03-31 00:07:00,52.1,47.0,30.17,WNW,284,0.0,0.0,82,0.00,,,0.00,weatherlink.com 1.10,2013-03-31 04:07:00,
2013-03-31 00:22:00,52.0,48.0,30.16,NE,37,0.0,2.0,86,0.00,,,0.00,weatherlink.com 1.10,2013-03-31 04:22:00,
2013-03-31 00:37:00,52.0,48.0,30.16,NNE,12,0.0,0.0,86,0.00,,,0.00,weatherlink.com 1.10,2013-03-31 04:37:00,
2013-03-31 00:52:00,51.7,48.0,30.16,NE,50,0.0,2.0,87,0.00,,,0.00,weatherlink.com 1.10,2013-03-31 04:52:00,
2013-03-31 01:07:00,52.3,49.0,30.16,NE,45,1.0,1.0,87,0.00,,,0.00,weatherlink.com 1.10,2013-03-31 05:07:00,
2013-03-31 01:22:00,52.2,49.0,30.15,NE,44,0.0,0.0,88,0.00,,,0.00,weatherlink.com 1.10,2013-03-31 05:22:00,
2013-03-31 01:52:00,53.5,49.0,30.14,NE,46,0.0,1.0,83,0.00,,,0.00,weatherlink.com 1.10,2013-03-31 05:52:00,
2013-03-31 02:07:00,53.7,49.0,30.14,NE,40,1.0,2.0,83,0.00,,,0.00,weatherlink.com 1.10,2013-03-31 06:07:00,
2013-03-31 02:22:00,53.8,49.0,30.14,NE,39,2.0,3.0,85,0.00,,,0.00,weatherlink.com 1.10,2013-03-31 06:22:00,
2013-03-31 02:37:00,53.3,49.0,30.13,NE,39,1.0,2.0,86,0.00,,,0.00,weatherlink.com 1.10,2013-03-31 06:37:00,
2013-03-31 02:52:00,53.3,50.0,30.12,NE,36,2.0,3.0,87,0.00,,,0.00,weatherlink.com 1.10,2013-03-31 06:52:00,
2013-03-31 03:07:00,53.6,50.0,30.12,NE,37,2.0,3.0,88,0.00,,,0.00,weatherlink.com 1.10,2013-03-31 07:07:00,
2013-03-31 03:22:00,53.6,50.0,30.12,NE,39,2.0,2.0,88,0.00,,,0.00,weatherlink.com 1.10,2013-03-31 07:22:00,
2013-03-31 03:37:00,54.1,51.0,30.11,NE,56,1.0,3.0,88,0.00,,,0.00,weatherlink.com 1.10,2013-03-31 07:37:00,
2013-03-31 03:52:00,54.0,51.0,30.11,NE,56,1.0,1.0,88,0.00,,,0.00,weatherlink.com 1.10,2013-03-31 07:52:00,
2013-03-31 04:07:00,54.2,51.0,30.11,ENE,74,3.0,5.0,90,0.00,,,0.00,weatherlink.com 1.10,2013-03-31 08:07:00,
2013-03-31 04:23:00,54.1,51.0,30.10,East,95,5.0,6.0,88,0.00,,,0.00,weatherlink.com 1.10,2013-03-31 08:23:00,
2013-03-31 04:38:00,54.1,51.0,30.10,East,91,2.0,5.0,88,0.00,,,0.00,weatherlink.com 1.10,2013-03-31 08:38:00,
2013-03-31 04:53:00,54.0,51.0,30.10,ENE,77,2.0,5.0,89,0.00,,,0.00,weatherlink.com 1.10,2013-03-31 08:53:00,
2013-03-31 05:08:00,53.4,50.0,30.09,ENE,65,0.0,2.0,89,0.00,,,0.00,weatherlink.com 1.10,2013-03-31 09:08:00,
2013-03-31 05:23:00,53.9,51.0,30.09,ENE,75,0.0,4.0,90,0.00,,,0.00,weatherlink.com 1.10,2013-03-31 09:23:00,
2013-03-31 05:38:00,53.1,50.0,30.09,ENE,68,2.0,2.0,90,0.00,,,0.00,weatherlink.com 1.10,2013-03-31 09:38:00,
2013-03-31 05:53:00,53.5,51.0,30.08,NE,44,0.0,2.0,92,0.00,,,0.00,weatherlink.com 1.10,2013-03-31 09:53:00,
2013-03-31 06:08:00,53.5,51.0,30.08,East,84,0.0,1.0,91,0.00,,,0.00,weatherlink.com 1.10,2013-03-31 10:08:00,
2013-03-31 06:23:00,53.3,51.0,30.08,SSW,204,0.0,1.0,92,0.00,,,0.00,weatherlink.com 1.10,2013-03-31 10:23:00,
2013-03-31 06:38:00,53.4,52.0,30.08,SSE,155,0.0,1.0,93,0.00,,,0.00,weatherlink.com 1.10,2013-03-31 10:38:00,
2013-03-31 06:53:00,53.5,52.0,30.08,SSE,155,0.0,0.0,93,0.00,,,0.00,weatherlink.com 1.10,2013-03-31 10:53:00,
2013-03-31 07:08:00,53.6,52.0,30.08,SSE,155,0.0,0.0,93,0.00,,,0.00,weatherlink.com 1.10,2013-03-31 11:08:00,
2013-03-31 07:23:00,53.9,52.0,30.08,SSW,206,0.0,1.0,93,0.00,,,0.00,weatherlink.com 1.10,2013-03-31 11:23:00,
2013-03-31 07:38:00,54.2,52.0,30.08,SSW,211,0.0,1.0,93,0.00,,,0.00,weatherlink.com 1.10,2013-03-31 11:38:00,
2013-03-31 07:53:00,54.4,52.0,30.08,SSW,212,1.0,1.0,92,0.00,,,0.00,weatherlink.com 1.10,2013-03-31 11:53:00,
2013-03-31 08:08:00,54.9,52.0,30.07,SSW,193,0.0,2.0,91,0.00,,,0.00,weatherlink.com 1.10,2013-03-31 12:08:00,
2013-03-31 08:23:00,55.4,53.0,30.07,SSW,193,0.0,0.0,90,0.00,,,0.00,weatherlink.com 1.10,2013-03-31 12:23:00,
2013-03-31 08:38:00,56.1,53.0,30.07,SSW,193,0.0,1.0,89,0.00,,,0.00,weatherlink.com 1.10,2013-03-31 12:38:00,
2013-03-31 08:53:00,56.7,53.0,30.07,SSW,211,0.0,1.0,88,0.00,,,0.00,weatherlink.com 1.10,2013-03-31 12:53:00,
2013-03-31 09:08:00,57.4,54.0,30.06,SE,132,4.0,4.0,87,0.00,,,0.00,weatherlink.com 1.10,2013-03-31 13:08:00,
2013-03-31 09:23:00,57.9,54.0,30.06,South,178,2.0,5.0,86,0.00,,,0.00,weatherlink.com 1.10,2013-03-31 13:23:00,
2013-03-31 09:38:00,58.8,54.0,30.05,SE,136,1.0,4.0,85,0.00,,,0.00,weatherlink.com 1.10,2013-03-31 13:38:00,
2013-03-31 09:53:00,59.4,54.0,30.04,SSE,165,4.0,6.0,83,0.00,,,0.00,weatherlink.com 1.10,2013-03-31 13:53:00,
2013-03-31 10:08:00,59.3,54.0,30.04,SSE,162,3.0,6.0,83,0.00,,,0.00,weatherlink.com 1.10,2013-03-31 14:08:00,
2013-03-31 10:23:00,60.1,55.0,30.04,SSW,201,6.0,8.0,83,0.00,,,0.00,weatherlink.com 1.10,2013-03-31 14:23:00,
2013-03-31 10:38:00,59.9,55.0,30.03,SSW,207,8.0,10.0,83,0.00,,,0.00,weatherlink.com 1.10,2013-03-31 14:38:00,
2013-03-31 10:53:00,59.4,55.0,30.03,SW,214,7.0,11.0,84,0.00,,,0.00,weatherlink.com 1.10,2013-03-31 14:53:00,
2013-03-31 11:08:00,59.9,55.0,30.03,SSW,213,6.0,12.0,84,0.00,,,0.00,weatherlink.com 1.10,2013-03-31 15:08:00,
2013-03-31 11:23:00,61.9,56.0,30.02,SW,219,7.0,14.0,80,0.00,,,0.00,weatherlink.com 1.10,2013-03-31 15:23:00,
2013-03-31 11:38:00,62.4,56.0,30.02,SW,233,13.0,18.0,79,0.00,,,0.00,weatherlink.com 1.10,2013-03-31 15:38:00,
2013-03-31 11:54:00,64.1,56.0,30.02,WSW,240,12.0,19.0,75,0.00,,,0.00,weatherlink.com 1.10,2013-03-31 15:54:00,
2013-03-31 12:09:00,64.3,56.0,30.01,WSW,240,14.0,21.0,75,0.00,,,0.00,weatherlink.com 1.10,2013-03-31 16:09:00,
2013-03-31 12:24:00,64.6,56.0,30.00,WSW,241,11.0,21.0,73,0.00,,,0.00,weatherlink.com 1.10,2013-03-31 16:24:00,
2013-03-31 12:39:00,65.1,55.0,30.00,SSW,210,10.0,23.0,69,0.00,,,0.00,weatherlink.com 1.10,2013-03-31 16:39:00,
2013-03-31 12:54:00,65.2,54.0,30.00,WSW,240,18.0,22.0,67,0.00,,,0.00,weatherlink.com 1.10,2013-03-31 16:54:00,
2013-03-31 13:09:00,63.4,55.0,29.99,WSW,241,14.0,23.0,73,0.00,,,0.00,weatherlink.com 1.10,2013-03-31 17:09:00,
2013-03-31 13:24:00,65.0,53.0,29.98,SW,236,13.0,23.0,66,0.00,,,0.00,weatherlink.com 1.10,2013-03-31 17:24:00,
2013-03-31 13:39:00,65.8,53.0,29.96,SW,226,17.0,27.0,64,0.00,,,0.00,weatherlink.com 1.10,2013-03-31 17:39:00,
2013-03-31 13:54:00,66.0,54.0,29.95,SW,229,18.0,30.0,65,0.00,,,0.00,weatherlink.com 1.10,2013-03-31 17:54:00,
2013-03-31 14:09:00,65.2,54.0,29.94,WSW,243,18.0,30.0,67,0.00,,,0.00,weatherlink.com 1.10,2013-03-31 18:09:00,
2013-03-31 14:24:00,65.3,54.0,29.94,SSW,205,20.0,29.0,66,0.00,,,0.00,weatherlink.com 1.10,2013-03-31 18:24:00,
2013-03-31 14:39:00,65.2,54.0,29.92,SW,219,12.0,28.0,68,0.00,,,0.00,weatherlink.com 1.10,2013-03-31 18:39:00,
2013-03-31 14:54:00,65.2,54.0,29.91,WSW,238,12.0,27.0,68,0.00,,,0.00,weatherlink.com 1.10,2013-03-31 18:54:00,
2013-03-31 15:09:00,65.0,55.0,29.91,WSW,253,19.0,27.0,69,0.00,,,0.00,weatherlink.com 1.10,2013-03-31 19:09:00,
2013-03-31 15:24:00,64.2,55.0,29.92,SSW,212,25.0,29.0,71,0.00,,,0.00,weatherlink.com 1.10,2013-03-31 19:24:00,
2013-03-31 15:39:00,64.0,54.0,29.93,WSW,239,16.0,30.0,70,0.00,,,0.00,weatherlink.com 1.10,2013-03-31 19:39:00,
2013-03-31 15:54:00,63.9,54.0,29.93,WSW,254,16.0,28.0,70,0.00,,,0.00,weatherlink.com 1.10,2013-03-31 19:54:00,
2013-03-31 16:09:00,63.4,54.0,29.92,SW,234,16.0,27.0,72,0.00,,,0.00,weatherlink.com 1.10,2013-03-31 20:09:00,
2013-03-31 16:24:00,63.1,54.0,29.91,WSW,241,17.0,28.0,72,0.00,,,0.00,weatherlink.com 1.10,2013-03-31 20:24:00,
2013-03-31 16:39:00,62.8,55.0,29.90,SW,220,20.0,31.0,75,0.00,,,0.00,weatherlink.com 1.10,2013-03-31 20:39:00,
2013-03-31 16:54:00,63.3,55.0,29.89,WSW,247,17.0,32.0,75,0.00,,,0.00,weatherlink.com 1.10,2013-03-31 20:54:00,
2013-03-31 17:09:00,63.1,55.0,29.89,West,274,18.0,30.0,75,0.00,,,0.00,weatherlink.com 1.10,2013-03-31 21:09:00,
2013-03-31 17:24:00,62.6,55.0,29.90,WSW,245,12.0,30.0,77,0.00,,,0.00,weatherlink.com 1.10,2013-03-31 21:24:00,
2013-03-31 17:39:00,62.8,55.0,29.90,WSW,247,21.0,27.0,76,0.00,,,0.00,weatherlink.com 1.10,2013-03-31 21:39:00,
2013-03-31 17:54:00,62.4,55.0,29.90,WSW,245,11.0,29.0,77,0.00,,,0.00,weatherlink.com 1.10,2013-03-31 21:54:00,
2013-03-31 18:09:00,62.5,55.0,29.91,WSW,238,15.0,26.0,75,0.00,,,0.00,weatherlink.com 1.10,2013-03-31 22:09:00,
2013-03-31 18:24:00,62.4,54.0,29.90,West,273,11.0,29.0,75,0.00,,,0.00,weatherlink.com 1.10,2013-03-31 22:24:00,
2013-03-31 18:39:00,62.0,54.0,29.90,SW,227,18.0,33.0,75,0.00,,,0.00,weatherlink.com 1.10,2013-03-31 22:39:00,
2013-03-31 18:54:00,61.7,54.0,29.91,WSW,251,13.0,22.0,75,0.00,,,0.00,weatherlink.com 1.10,2013-03-31 22:54:00,
2013-03-31 19:09:00,61.9,54.0,29.90,WSW,252,13.0,27.0,75,0.00,,,0.00,weatherlink.com 1.10,2013-03-31 23:09:00,
2013-03-31 19:24:00,61.8,54.0,29.89,WSW,245,10.0,27.0,75,0.00,,,0.00,weatherlink.com 1.10,2013-03-31 23:24:00,
2013-03-31 19:54:00,61.2,54.0,29.89,West,266,10.0,28.0,77,0.00,,,0.00,weatherlink.com 1.10,2013-03-31 23:54:00,
2013-03-31 20:09:00,61.3,54.0,29.90,SW,235,9.0,26.0,77,0.00,,,0.00,weatherlink.com 1.10,2013-04-01 00:09:00,
2013-03-31 20:24:00,61.1,54.0,29.90,SW,227,11.0,18.0,78,0.00,,,0.00,weatherlink.com 1.10,2013-04-01 00:24:00,
2013-03-31 20:40:00,61.1,54.0,29.91,WSW,237,11.0,19.0,78,0.00,,,0.00,weatherlink.com 1.10,2013-04-01 00:40:00,
2013-03-31 20:54:00,60.9,54.0,29.90,WNW,283,3.0,18.0,79,0.00,,,0.00,weatherlink.com 1.10,2013-04-01 00:54:00,
2013-03-31 21:10:00,61.1,55.0,29.90,WSW,239,8.0,23.0,79,0.00,,,0.00,weatherlink.com 1.10,2013-04-01 01:10:00,
2013-03-31 21:25:00,61.0,55.0,29.91,SW,229,10.0,20.0,80,0.00,,,0.00,weatherlink.com 1.10,2013-04-01 01:25:00,
2013-03-31 21:40:00,61.2,55.0,29.91,West,259,7.0,17.0,80,0.00,,,0.00,weatherlink.com 1.10,2013-04-01 01:40:00,
2013-03-31 21:55:00,61.6,55.0,29.91,West,261,5.0,18.0,79,0.00,,,0.00,weatherlink.com 1.10,2013-04-01 01:55:00,
2013-03-31 22:10:00,61.5,55.0,29.92,West,264,4.0,18.0,80,0.00,,,0.00,weatherlink.com 1.10,2013-04-01 02:10:00,
2013-03-31 22:25:00,61.5,55.0,29.91,West,276,11.0,18.0,80,0.00,,,0.00,weatherlink.com 1.10,2013-04-01 02:25:00,
2013-03-31 22:40:00,61.8,55.0,29.91,SW,236,12.0,20.0,79,0.00,,,0.00,weatherlink.com 1.10,2013-04-01 02:40:00,
2013-03-31 22:55:00,62.0,55.0,29.91,WSW,242,14.0,20.0,79,0.00,,,0.00,weatherlink.com 1.10,2013-04-01 02:55:00,
2013-03-31 23:10:00,61.9,56.0,29.91,WSW,243,11.0,24.0,80,0.00,,,0.00,weatherlink.com 1.10,2013-04-01 03:10:00,
2013-03-31 23:25:00,61.6,56.0,29.91,West,271,7.0,26.0,81,0.00,,,0.00,weatherlink.com 1.10,2013-04-01 03:25:00,
2013-03-31 23:40:00,60.1,56.0,29.91,WSW,243,15.0,18.0,85,0.00,,,0.00,weatherlink.com 1.10,2013-04-01 03:40:00,
2013-03-31 23:55:00,58.8,55.0,29.90,West,264,11.0,16.0,88,0.01,,,0.01,weatherlink.com 1.10,2013-04-01 03:55:00,